sensor_id;sensor_type;location;lat;lon;timestamp;pressure;altitude;pressure_sealevel;temperature;humidity
12594;BME280;6362;50.208;9.182;2023-07-28T00:01:23;99035.66;;;16.71;100.00
12594;BME280;6362;50.208;9.182;2023-07-28T00:03:48;99047.25;;;16.65;100.00
12594;BME280;6362;50.208;9.182;2023-07-28T00:06:14;99045.34;;;16.69;100.00
12594;BME280;6362;50.208;9.182;2023-07-28T00:08:39;99032.50;;;16.62;100.00
12594;BME280;6362;50.208;9.182;2023-07-28T00:11:11;99037.34;;;16.53;100.00
12594;BME280;6362;50.208;9.182;2023-07-28T00:13:41;99043.09;;;16.61;100.00
12594;BME280;6362;50.208;9.182;2023-07-28T00:16:06;99034.63;;;16.54;100.00
12594;BME280;6362;50.208;9.182;2023-07-28T00:18:32;99024.56;;;16.45;100.00
12594;BME280;6362;50.208;9.182;2023-07-28T00:20:58;99024.94;;;16.56;100.00
12594;BME280;6362;50.208;9.182;2023-07-28T00:23:24;99018.53;;;16.43;100.00
12594;BME280;6362;50.208;9.182;2023-07-28T00:25:49;99023.78;;;16.43;100.00
12594;BME280;6362;50.208;9.182;2023-07-28T00:28:15;99019.25;;;16.47;100.00
12594;BME280;6362;50.208;9.182;2023-07-28T00:30:40;99025.72;;;16.40;100.00
12594;BME280;6362;50.208;9.182;2023-07-28T00:33:06;99026.56;;;16.40;100.00
12594;BME280;6362;50.208;9.182;2023-07-28T00:35:32;99016.97;;;16.39;100.00
12594;BME280;6362;50.208;9.182;2023-07-28T00:37:57;99023.78;;;16.43;100.00
12594;BME280;6362;50.208;9.182;2023-07-28T00:40:23;99016.50;;;16.50;100.00
12594;BME280;6362;50.208;9.182;2023-07-28T00:42:49;99013.16;;;16.46;100.00
12594;BME280;6362;50.208;9.182;2023-07-28T00:45:14;99013.34;;;16.42;100.00
12594;BME280;6362;50.208;9.182;2023-07-28T00:47:40;99009.88;;;16.41;100.00
12594;BME280;6362;50.208;9.182;2023-07-28T00:50:07;99014.94;;;16.46;100.00
12594;BME280;6362;50.208;9.182;2023-07-28T00:52:33;99009.50;;;16.49;100.00
12594;BME280;6362;50.208;9.182;2023-07-28T00:54:59;99012.50;;;16.41;100.00
12594;BME280;6362;50.208;9.182;2023-07-28T00:57:25;99011.88;;;16.36;100.00
12594;BME280;6362;50.208;9.182;2023-07-28T00:59:50;99012.66;;;16.38;100.00
12594;BME280;6362;50.208;9.182;2023-07-28T01:02:16;99000.59;;;16.34;100.00
12594;BME280;6362;50.208;9.182;2023-07-28T01:04:41;99005.84;;;16.34;100.00
12594;BME280;6362;50.208;9.182;2023-07-28T01:07:14;99008.31;;;16.37;100.00
12594;BME280;6362;50.208;9.182;2023-07-28T01:09:54;98999.88;;;16.30;100.00
12594;BME280;6362;50.208;9.182;2023-07-28T01:12:23;99008.69;;;16.29;100.00
12594;BME280;6362;50.208;9.182;2023-07-28T01:14:49;99004.84;;;16.36;100.00
12594;BME280;6362;50.208;9.182;2023-07-28T01:17:14;99005.97;;;16.31;100.00
12594;BME280;6362;50.208;9.182;2023-07-28T01:19:40;99006.91;;;16.30;100.00
12594;BME280;6362;50.208;9.182;2023-07-28T01:27:20;99009.69;;;16.27;100.00
12594;BME280;6362;50.208;9.182;2023-07-28T01:29:47;99004.69;;;16.21;100.00
12594;BME280;6362;50.208;9.182;2023-07-28T01:32:14;98996.78;;;16.22;100.00
12594;BME280;6362;50.208;9.182;2023-07-28T01:34:39;99003.72;;;16.23;100.00
12594;BME280;6362;50.208;9.182;2023-07-28T01:37:05;99004.69;;;16.21;100.00
12594;BME280;6362;50.208;9.182;2023-07-28T01:39:30;98997.53;;;16.24;100.00
12594;BME280;6362;50.208;9.182;2023-07-28T01:41:56;98992.00;;;16.30;100.00
12594;BME280;6362;50.208;9.182;2023-07-28T01:44:21;98985.91;;;16.30;100.00
12594;BME280;6362;50.208;9.182;2023-07-28T01:46:46;98989.25;;;16.33;100.00
12594;BME280;6362;50.208;9.182;2023-07-28T01:49:12;98994.50;;;16.33;100.00
12594;BME280;6362;50.208;9.182;2023-07-28T01:51:37;98993.50;;;16.36;100.00
12594;BME280;6362;50.208;9.182;2023-07-28T01:54:03;98993.84;;;16.28;100.00
12594;BME280;6362;50.208;9.182;2023-07-28T01:56:28;98985.13;;;16.28;100.00
12594;BME280;6362;50.208;9.182;2023-07-28T01:58:53;98995.75;;;16.25;100.00
12594;BME280;6362;50.208;9.182;2023-07-28T02:01:19;98994.63;;;16.30;100.00
12594;BME280;6362;50.208;9.182;2023-07-28T02:03:44;98988.91;;;16.22;100.00
12594;BME280;6362;50.208;9.182;2023-07-28T02:06:10;98982.50;;;16.28;100.00
12594;BME280;6362;50.208;9.182;2023-07-28T02:08:35;98987.13;;;16.23;100.00
12594;BME280;6362;50.208;9.182;2023-07-28T02:11:00;98996.81;;;16.21;100.00
12594;BME280;6362;50.208;9.182;2023-07-28T02:13:26;98993.41;;;16.19;100.00
12594;BME280;6362;50.208;9.182;2023-07-28T02:15:51;98985.47;;;16.20;100.00
12594;BME280;6362;50.208;9.182;2023-07-28T02:18:17;98993.53;;;16.16;100.00
12594;BME280;6362;50.208;9.182;2023-07-28T02:20:42;98994.91;;;16.24;100.00
12594;BME280;6362;50.208;9.182;2023-07-28T02:23:07;98987.25;;;16.20;100.00
12594;BME280;6362;50.208;9.182;2023-07-28T02:25:33;98980.19;;;16.22;100.00
12594;BME280;6362;50.208;9.182;2023-07-28T02:27:58;98988.91;;;16.22;100.00
12594;BME280;6362;50.208;9.182;2023-07-28T02:30:24;98994.19;;;16.21;100.00
12594;BME280;6362;50.208;9.182;2023-07-28T02:32:49;98997.75;;;16.20;100.00
12594;BME280;6362;50.208;9.182;2023-07-28T02:35:14;98995.13;;;16.20;100.00
12594;BME280;6362;50.208;9.182;2023-07-28T02:37:40;98996.78;;;16.22;100.00
12594;BME280;6362;50.208;9.182;2023-07-28T02:40:06;99001.94;;;16.24;100.00
12594;BME280;6362;50.208;9.182;2023-07-28T02:42:32;98996.56;;;16.27;100.00
12594;BME280;6362;50.208;9.182;2023-07-28T02:44:59;98999.31;;;16.24;100.00
12594;BME280;6362;50.208;9.182;2023-07-28T02:47:24;98993.28;;;16.22;100.00
12594;BME280;6362;50.208;9.182;2023-07-28T02:49:50;99000.09;;;16.26;100.00
12594;BME280;6362;50.208;9.182;2023-07-28T02:52:15;99005.34;;;16.26;100.00
12594;BME280;6362;50.208;9.182;2023-07-28T02:54:41;99004.69;;;16.21;100.00
12594;BME280;6362;50.208;9.182;2023-07-28T02:57:06;99002.13;;;16.19;100.00
12594;BME280;6362;50.208;9.182;2023-07-28T02:59:31;99007.47;;;16.18;100.00
12594;BME280;6362;50.208;9.182;2023-07-28T03:01:57;99011.00;;;16.17;100.00
12594;BME280;6362;50.208;9.182;2023-07-28T03:04:22;99011.88;;;16.17;100.00
12594;BME280;6362;50.208;9.182;2023-07-28T03:06:48;99007.59;;;16.15;100.00
12594;BME280;6362;50.208;9.182;2023-07-28T03:09:13;99004.19;;;16.13;100.00
12594;BME280;6362;50.208;9.182;2023-07-28T03:11:41;99003.34;;;16.12;100.00
12594;BME280;6362;50.208;9.182;2023-07-28T03:14:07;99009.25;;;16.17;100.00
12594;BME280;6362;50.208;9.182;2023-07-28T03:16:32;99003.06;;;16.18;100.00
12594;BME280;6362;50.208;9.182;2023-07-28T03:18:58;99004.00;;;16.36;100.00
12594;BME280;6362;50.208;9.182;2023-07-28T03:21:23;99005.22;;;16.29;100.00
12594;BME280;6362;50.208;9.182;2023-07-28T03:23:49;99007.75;;;16.30;100.00
12594;BME280;6362;50.208;9.182;2023-07-28T03:26:14;98999.75;;;16.33;100.00
12594;BME280;6362;50.208;9.182;2023-07-28T03:28:40;99005.94;;;16.32;100.00
12594;BME280;6362;50.208;9.182;2023-07-28T03:31:05;99012.91;;;16.32;100.00
12594;BME280;6362;50.208;9.182;2023-07-28T03:33:30;99013.16;;;16.27;100.00
12594;BME280;6362;50.208;9.182;2023-07-28T03:35:56;99007.63;;;16.33;100.00
12594;BME280;6362;50.208;9.182;2023-07-28T03:38:21;99009.59;;;16.28;100.00
12594;BME280;6362;50.208;9.182;2023-07-28T03:40:47;99005.84;;;16.34;100.00
12594;BME280;6362;50.208;9.182;2023-07-28T03:43:12;99004.16;;;16.33;100.00
12594;BME280;6362;50.208;9.182;2023-07-28T03:45:38;99013.06;;;16.29;100.00
12594;BME280;6362;50.208;9.182;2023-07-28T03:48:03;99015.78;;;16.27;100.00
12594;BME280;6362;50.208;9.182;2023-07-28T03:50:28;99016.47;;;16.31;100.00
12594;BME280;6362;50.208;9.182;2023-07-28T03:52:54;99008.47;;;16.34;100.00
12594;BME280;6362;50.208;9.182;2023-07-28T03:55:19;99004.16;;;16.33;100.00
12594;BME280;6362;50.208;9.182;2023-07-28T03:57:45;99006.41;;;16.41;100.00
12594;BME280;6362;50.208;9.182;2023-07-28T04:00:10;99005.69;;;16.37;100.00
12594;BME280;6362;50.208;9.182;2023-07-28T04:02:36;99000.59;;;16.34;100.00
12594;BME280;6362;50.208;9.182;2023-07-28T04:05:01;99004.34;;;16.47;100.00
12594;BME280;6362;50.208;9.182;2023-07-28T04:07:27;99003.88;;;16.39;100.00
12594;BME280;6362;50.208;9.182;2023-07-28T04:09:52;99003.00;;;16.39;100.00
12594;BME280;6362;50.208;9.182;2023-07-28T04:12:18;99003.41;;;16.48;100.00
12594;BME280;6362;50.208;9.182;2023-07-28T04:14:43;99005.75;;;16.54;100.00
12594;BME280;6362;50.208;9.182;2023-07-28T04:17:08;99006.41;;;16.41;100.00
12594;BME280;6362;50.208;9.182;2023-07-28T04:19:34;99011.44;;;16.45;100.00
12594;BME280;6362;50.208;9.182;2023-07-28T04:22:00;99015.41;;;16.54;100.00
12594;BME280;6362;50.208;9.182;2023-07-28T04:24:26;99014.16;;;16.44;100.00
12594;BME280;6362;50.208;9.182;2023-07-28T04:26:52;99020.25;;;16.44;100.00
12594;BME280;6362;50.208;9.182;2023-07-28T04:29:18;99017.91;;;16.38;100.00
12594;BME280;6362;50.208;9.182;2023-07-28T04:31:43;99023.78;;;16.43;100.00
12594;BME280;6362;50.208;9.182;2023-07-28T04:34:08;99024.66;;;16.44;100.00
12594;BME280;6362;50.208;9.182;2023-07-28T04:36:34;99028.34;;;16.40;100.00
12594;BME280;6362;50.208;9.182;2023-07-28T04:39:00;99027.53;;;16.37;100.00
12594;BME280;6362;50.208;9.182;2023-07-28T04:41:25;99032.09;;;16.34;100.00
12594;BME280;6362;50.208;9.182;2023-07-28T04:43:50;99033.72;;;16.36;100.00
12594;BME280;6362;50.208;9.182;2023-07-28T04:46:16;99032.84;;;16.36;100.00
12594;BME280;6362;50.208;9.182;2023-07-28T04:48:41;99025.06;;;16.34;100.00
12594;BME280;6362;50.208;9.182;2023-07-28T04:51:07;99028.53;;;16.35;100.00
12594;BME280;6362;50.208;9.182;2023-07-28T04:53:32;99039.41;;;16.46;100.00
12594;BME280;6362;50.208;9.182;2023-07-28T04:55:58;99043.06;;;16.42;100.00
12594;BME280;6362;50.208;9.182;2023-07-28T04:58:23;99045.28;;;16.51;100.00
12594;BME280;6362;50.208;9.182;2023-07-28T05:00:48;99048.63;;;16.55;100.00
12594;BME280;6362;50.208;9.182;2023-07-28T05:03:14;99047.91;;;16.51;100.00
12594;BME280;6362;50.208;9.182;2023-07-28T05:05:43;99053.28;;;16.48;100.00
12594;BME280;6362;50.208;9.182;2023-07-28T05:08:08;99049.91;;;16.46;100.00
12594;BME280;6362;50.208;9.182;2023-07-28T05:10:33;99046.34;;;16.47;100.00
12594;BME280;6362;50.208;9.182;2023-07-28T05:12:59;99052.16;;;16.54;100.00
12594;BME280;6362;50.208;9.182;2023-07-28T05:15:24;99052.97;;;16.56;100.00
12594;BME280;6362;50.208;9.182;2023-07-28T05:17:50;99059.75;;;16.60;100.00
12594;BME280;6362;50.208;9.182;2023-07-28T05:20:15;99058.78;;;16.62;100.00
12594;BME280;6362;50.208;9.182;2023-07-28T05:22:41;99055.13;;;16.65;100.00
12594;BME280;6362;50.208;9.182;2023-07-28T05:25:07;99061.00;;;16.72;100.00
12594;BME280;6362;50.208;9.182;2023-07-28T05:27:32;99057.28;;;16.76;100.00
12594;BME280;6362;50.208;9.182;2023-07-28T05:29:58;99064.19;;;16.78;100.00
12594;BME280;6362;50.208;9.182;2023-07-28T05:32:23;99062.41;;;16.79;100.00
12594;BME280;6362;50.208;9.182;2023-07-28T05:34:49;99064.84;;;16.83;100.00
12594;BME280;6362;50.208;9.182;2023-07-28T05:37:14;99071.69;;;16.86;100.00
12594;BME280;6362;50.208;9.182;2023-07-28T05:39:40;99070.34;;;16.96;100.00
12594;BME280;6362;50.208;9.182;2023-07-28T05:42:05;99064.34;;;16.94;100.00
12594;BME280;6362;50.208;9.182;2023-07-28T05:44:31;99067.81;;;16.95;100.00
12594;BME280;6362;50.208;9.182;2023-07-28T05:46:56;99070.28;;;16.98;100.00
12594;BME280;6362;50.208;9.182;2023-07-28T05:49:22;99071.41;;;16.92;100.00
12594;BME280;6362;50.208;9.182;2023-07-28T05:51:47;99076.88;;;16.87;100.00
12594;BME280;6362;50.208;9.182;2023-07-28T05:54:13;99088.03;;;16.93;100.00
12594;BME280;6362;50.208;9.182;2023-07-28T05:56:41;99079.00;;;16.98;100.00
12594;BME280;6362;50.208;9.182;2023-07-28T05:59:07;99075.53;;;16.98;100.00
12594;BME280;6362;50.208;9.182;2023-07-28T06:01:32;99076.41;;;17.15;100.00
12594;BME280;6362;50.208;9.182;2023-07-28T06:03:58;99085.53;;;17.08;100.00
12594;BME280;6362;50.208;9.182;2023-07-28T06:06:25;99077.50;;;17.11;100.00
12594;BME280;6362;50.208;9.182;2023-07-28T06:08:52;99078.44;;;17.10;100.00
12594;BME280;6362;50.208;9.182;2023-07-28T06:11:18;99081.06;;;17.10;100.00
12594;BME280;6362;50.208;9.182;2023-07-28T06:13:43;99082.69;;;17.13;100.00
12594;BME280;6362;50.208;9.182;2023-07-28T06:16:10;99080.78;;;17.17;100.00
12594;BME280;6362;50.208;9.182;2023-07-28T06:18:35;99083.09;;;17.23;100.00
12594;BME280;6362;50.208;9.182;2023-07-28T06:21:01;99084.09;;;17.20;100.00
12594;BME280;6362;50.208;9.182;2023-07-28T06:23:26;99082.81;;;17.29;100.00
12594;BME280;6362;50.208;9.182;2023-07-28T06:25:52;99089.66;;;17.31;100.00
12594;BME280;6362;50.208;9.182;2023-07-28T06:28:20;99092.16;;;17.34;100.00
12594;BME280;6362;50.208;9.182;2023-07-28T06:30:45;99086.69;;;17.39;100.00
12594;BME280;6362;50.208;9.182;2023-07-28T06:33:11;99095.41;;;17.39;100.00
12594;BME280;6362;50.208;9.182;2023-07-28T06:35:36;99097.34;;;17.36;100.00
12594;BME280;6362;50.208;9.182;2023-07-28T06:38:03;99093.66;;;17.40;100.00
12594;BME280;6362;50.208;9.182;2023-07-28T06:40:28;99093.19;;;17.49;100.00
12594;BME280;6362;50.208;9.182;2023-07-28T06:42:54;99097.97;;;17.58;100.00
12594;BME280;6362;50.208;9.182;2023-07-28T06:45:20;99098.78;;;17.60;100.00
12594;BME280;6362;50.208;9.182;2023-07-28T06:47:46;99110.69;;;17.67;100.00
12594;BME280;6362;50.208;9.182;2023-07-28T06:50:12;99104.00;;;17.79;100.00
12594;BME280;6362;50.208;9.182;2023-07-28T06:52:37;99105.06;;;17.92;100.00
12594;BME280;6362;50.208;9.182;2023-07-28T06:55:03;99108.41;;;17.96;100.00
12594;BME280;6362;50.208;9.182;2023-07-28T06:57:29;99109.88;;;18.02;100.00
12594;BME280;6362;50.208;9.182;2023-07-28T06:59:55;99109.63;;;18.06;100.00
12594;BME280;6362;50.208;9.182;2023-07-28T07:02:21;99115.84;;;18.05;100.00
12594;BME280;6362;50.208;9.182;2023-07-28T07:04:47;99120.38;;;18.02;100.00
12594;BME280;6362;50.208;9.182;2023-07-28T07:07:12;99126.72;;;17.98;100.00
12594;BME280;6362;50.208;9.182;2023-07-28T07:09:37;99120.84;;;17.92;100.00
12594;BME280;6362;50.208;9.182;2023-07-28T07:12:03;99128.75;;;17.92;100.00
12594;BME280;6362;50.208;9.182;2023-07-28T07:14:29;99131.38;;;17.92;100.00
12594;BME280;6362;50.208;9.182;2023-07-28T07:16:54;99126.69;;;17.99;100.00
12594;BME280;6362;50.208;9.182;2023-07-28T07:19:20;99125.44;;;18.06;100.00
12594;BME280;6362;50.208;9.182;2023-07-28T07:21:45;99120.16;;;18.06;100.00
12594;BME280;6362;50.208;9.182;2023-07-28T07:24:13;99129.75;;;18.07;100.00
12594;BME280;6362;50.208;9.182;2023-07-28T07:26:41;99132.25;;;18.10;100.00
12594;BME280;6362;50.208;9.182;2023-07-28T07:29:10;99134.47;;;18.18;100.00
12594;BME280;6362;50.208;9.182;2023-07-28T07:31:35;99135.22;;;18.20;100.00
12594;BME280;6362;50.208;9.182;2023-07-28T07:34:01;99145.75;;;18.20;100.00
12594;BME280;6362;50.208;9.182;2023-07-28T07:36:26;99135.28;;;18.36;100.00
12594;BME280;6362;50.208;9.182;2023-07-28T07:38:52;99140.41;;;18.39;100.00
12594;BME280;6362;50.208;9.182;2023-07-28T07:41:17;99149.25;;;18.38;100.00
12594;BME280;6362;50.208;9.182;2023-07-28T07:43:46;99139.00;;;18.32;100.00
12594;BME280;6362;50.208;9.182;2023-07-28T07:46:12;99152.34;;;18.29;100.00
12594;BME280;6362;50.208;9.182;2023-07-28T07:48:38;99146.31;;;18.27;100.00
12594;BME280;6362;50.208;9.182;2023-07-28T07:51:03;99146.22;;;18.28;100.00
12594;BME280;6362;50.208;9.182;2023-07-28T07:53:29;99157.94;;;18.23;100.00
12594;BME280;6362;50.208;9.182;2023-07-28T07:55:54;99153.28;;;18.28;100.00
12594;BME280;6362;50.208;9.182;2023-07-28T07:58:20;99160.31;;;18.27;100.00
12594;BME280;6362;50.208;9.182;2023-07-28T08:00:45;99152.44;;;18.27;100.00
12594;BME280;6362;50.208;9.182;2023-07-28T08:03:11;99159.22;;;18.31;100.00
12594;BME280;6362;50.208;9.182;2023-07-28T08:05:36;99153.94;;;18.31;100.00
12594;BME280;6362;50.208;9.182;2023-07-28T08:08:02;99162.69;;;18.32;100.00
12594;BME280;6362;50.208;9.182;2023-07-28T08:10:28;99161.63;;;18.36;100.00
12594;BME280;6362;50.208;9.182;2023-07-28T08:12:54;99153.06;;;18.48;100.00
12594;BME280;6362;50.208;9.182;2023-07-28T08:15:20;99159.81;;;18.54;100.00
12594;BME280;6362;50.208;9.182;2023-07-28T08:17:45;99156.09;;;18.58;100.00
12594;BME280;6362;50.208;9.182;2023-07-28T08:20:12;99164.75;;;18.60;100.00
12594;BME280;6362;50.208;9.182;2023-07-28T08:22:37;99172.59;;;18.61;100.00
12594;BME280;6362;50.208;9.182;2023-07-28T08:25:04;99172.41;;;18.64;99.31
12594;BME280;6362;50.208;9.182;2023-07-28T08:27:30;99169.00;;;18.62;98.70
12594;BME280;6362;50.208;9.182;2023-07-28T08:29:55;99173.75;;;18.56;100.00
12594;BME280;6362;50.208;9.182;2023-07-28T08:32:20;99167.13;;;18.64;100.00
12594;BME280;6362;50.208;9.182;2023-07-28T08:34:47;99170.94;;;18.76;97.35
12594;BME280;6362;50.208;9.182;2023-07-28T08:37:12;99175.03;;;18.82;97.66
12594;BME280;6362;50.208;9.182;2023-07-28T08:39:38;99168.66;;;18.86;97.88
12594;BME280;6362;50.208;9.182;2023-07-28T08:42:04;99173.59;;;18.92;98.27
12594;BME280;6362;50.208;9.182;2023-07-28T08:44:34;99176.97;;;19.11;96.33
12594;BME280;6362;50.208;9.182;2023-07-28T08:47:01;99180.72;;;19.23;95.97
12594;BME280;6362;50.208;9.182;2023-07-28T08:49:27;99179.19;;;19.35;93.91
12594;BME280;6362;50.208;9.182;2023-07-28T08:51:57;99178.69;;;19.44;93.97
12594;BME280;6362;50.208;9.182;2023-07-28T08:54:23;99186.16;;;19.51;93.43
12594;BME280;6362;50.208;9.182;2023-07-28T08:56:49;99179.84;;;19.70;91.55
12594;BME280;6362;50.208;9.182;2023-07-28T08:59:24;99182.25;;;19.74;92.33
12594;BME280;6362;50.208;9.182;2023-07-28T09:01:56;99175.00;;;20.08;90.83
12594;BME280;6362;50.208;9.182;2023-07-28T09:04:23;99178.56;;;20.37;87.43
12594;BME280;6362;50.208;9.182;2023-07-28T09:06:50;99174.75;;;20.57;85.70
12594;BME280;6362;50.208;9.182;2023-07-28T09:09:20;99177.97;;;20.76;85.86
12594;BME280;6362;50.208;9.182;2023-07-28T09:11:50;99176.75;;;20.96;84.13
12594;BME280;6362;50.208;9.182;2023-07-28T09:14:17;99170.22;;;21.02;83.08
12594;BME280;6362;50.208;9.182;2023-07-28T09:16:44;99177.41;;;21.00;83.59
12594;BME280;6362;50.208;9.182;2023-07-28T09:19:10;99180.81;;;20.88;82.24
12594;BME280;6362;50.208;9.182;2023-07-28T09:21:38;99179.00;;;20.74;84.14
12594;BME280;6362;50.208;9.182;2023-07-28T09:24:04;99181.56;;;20.61;85.88
12594;BME280;6362;50.208;9.182;2023-07-28T09:26:47;99181.88;;;20.41;85.78
12594;BME280;6362;50.208;9.182;2023-07-28T09:29:18;99184.25;;;20.45;86.55
12594;BME280;6362;50.208;9.182;2023-07-28T09:31:47;99179.00;;;20.60;86.27
12594;BME280;6362;50.208;9.182;2023-07-28T09:34:24;99175.06;;;20.67;84.11
12594;BME280;6362;50.208;9.182;2023-07-28T09:36:53;99175.44;;;20.89;82.85
12594;BME280;6362;50.208;9.182;2023-07-28T09:39:19;99179.28;;;21.12;83.13
12594;BME280;6362;50.208;9.182;2023-07-28T09:41:46;99175.41;;;21.18;83.85
12594;BME280;6362;50.208;9.182;2023-07-28T09:44:12;99175.59;;;21.15;80.68
12594;BME280;6362;50.208;9.182;2023-07-28T09:47:02;99170.88;;;21.05;82.11
12594;BME280;6362;50.208;9.182;2023-07-28T09:49:37;99181.06;;;20.97;79.75
12594;BME280;6362;50.208;9.182;2023-07-28T09:52:06;99176.91;;;21.07;79.65
12594;BME280;6362;50.208;9.182;2023-07-28T09:54:38;99177.31;;;21.16;79.87
12594;BME280;6362;50.208;9.182;2023-07-28T09:57:05;99168.59;;;21.28;79.01
12594;BME280;6362;50.208;9.182;2023-07-28T09:59:38;99185.78;;;21.35;76.08
12594;BME280;6362;50.208;9.182;2023-07-28T10:02:05;99171.59;;;21.36;75.83
12594;BME280;6362;50.208;9.182;2023-07-28T10:04:31;99176.44;;;21.44;75.79
12594;BME280;6362;50.208;9.182;2023-07-28T10:06:57;99178.47;;;21.53;76.52
12594;BME280;6362;50.208;9.182;2023-07-28T10:09:27;99180.53;;;21.62;74.83
12594;BME280;6362;50.208;9.182;2023-07-28T10:11:54;99171.63;;;21.63;74.05
12594;BME280;6362;50.208;9.182;2023-07-28T10:14:27;99173.25;;;22.05;73.65
12594;BME280;6362;50.208;9.182;2023-07-28T10:16:58;99185.59;;;22.32;72.10
12594;BME280;6362;50.208;9.182;2023-07-28T10:19:27;99175.16;;;22.56;69.56
12594;BME280;6362;50.208;9.182;2023-07-28T10:22:06;99162.72;;;23.07;67.85
12594;BME280;6362;50.208;9.182;2023-07-28T10:30:00;99166.41;;;23.17;66.80
12594;BME280;6362;50.208;9.182;2023-07-28T10:32:36;99167.19;;;23.43;66.20
12594;BME280;6362;50.208;9.182;2023-07-28T10:37:37;99177.63;;;23.58;65.10
12594;BME280;6362;50.208;9.182;2023-07-28T10:40:23;99183.03;;;23.69;66.99
12594;BME280;6362;50.208;9.182;2023-07-28T10:42:52;99187.16;;;23.73;66.29
12594;BME280;6362;50.208;9.182;2023-07-28T10:45:18;99195.47;;;23.56;65.35
12594;BME280;6362;50.208;9.182;2023-07-28T10:47:45;99192.75;;;23.44;65.80
12594;BME280;6362;50.208;9.182;2023-07-28T10:50:11;99199.97;;;23.42;65.92
12594;BME280;6362;50.208;9.182;2023-07-28T10:52:41;99188.09;;;23.35;65.86
12594;BME280;6362;50.208;9.182;2023-07-28T10:55:17;99185.59;;;23.58;65.49
12594;BME280;6362;50.208;9.182;2023-07-28T10:57:47;99180.69;;;23.64;64.30
12594;BME280;6362;50.208;9.182;2023-07-28T11:00:16;99184.31;;;23.87;63.27
12594;BME280;6362;50.208;9.182;2023-07-28T11:02:42;99187.78;;;24.01;64.86
12594;BME280;6362;50.208;9.182;2023-07-28T11:05:13;99180.00;;;24.21;62.20
12594;BME280;6362;50.208;9.182;2023-07-28T11:07:45;99183.31;;;24.36;61.25
12594;BME280;6362;50.208;9.182;2023-07-28T11:10:13;99190.59;;;24.10;61.66
12594;BME280;6362;50.208;9.182;2023-07-28T11:12:42;99181.66;;;24.11;63.32
12594;BME280;6362;50.208;9.182;2023-07-28T11:15:09;99177.91;;;24.14;62.90
12594;BME280;6362;50.208;9.182;2023-07-28T11:17:43;99175.03;;;24.17;62.26
12594;BME280;6362;50.208;9.182;2023-07-28T11:20:20;99181.91;;;24.19;61.08
12594;BME280;6362;50.208;9.182;2023-07-28T11:22:52;99178.28;;;24.20;61.31
12594;BME280;6362;50.208;9.182;2023-07-28T11:25:17;99179.84;;;24.12;62.62
12594;BME280;6362;50.208;9.182;2023-07-28T11:27:44;99181.38;;;24.03;62.61
12594;BME280;6362;50.208;9.182;2023-07-28T11:30:17;99184.56;;;23.84;65.01
12594;BME280;6362;50.208;9.182;2023-07-28T11:32:45;99181.44;;;23.90;63.53
12594;BME280;6362;50.208;9.182;2023-07-28T11:35:12;99182.41;;;23.89;63.66
12594;BME280;6362;50.208;9.182;2023-07-28T11:37:39;99190.25;;;23.91;63.80
12594;BME280;6362;50.208;9.182;2023-07-28T11:40:07;99185.28;;;23.86;64.36
12594;BME280;6362;50.208;9.182;2023-07-28T11:42:37;99177.91;;;23.79;64.13
12594;BME280;6362;50.208;9.182;2023-07-28T11:45:04;99190.72;;;23.48;64.48
12594;BME280;6362;50.208;9.182;2023-07-28T11:47:30;99194.78;;;23.41;64.89
12594;BME280;6362;50.208;9.182;2023-07-28T11:49:56;99194.78;;;23.41;64.87
12594;BME280;6362;50.208;9.182;2023-07-28T11:52:24;99197.63;;;23.51;64.75
12594;BME280;6362;50.208;9.182;2023-07-28T11:54:54;99196.97;;;23.47;65.30
12594;BME280;6362;50.208;9.182;2023-07-28T11:57:20;99191.97;;;23.55;65.61
12594;BME280;6362;50.208;9.182;2023-07-28T11:59:46;99200.22;;;23.39;65.13
12594;BME280;6362;50.208;9.182;2023-07-28T12:02:12;99195.03;;;23.25;66.22
12594;BME280;6362;50.208;9.182;2023-07-28T12:04:38;99192.53;;;23.11;67.48
12594;BME280;6362;50.208;9.182;2023-07-28T12:12:14;99193.78;;;23.18;68.12
12594;BME280;6362;50.208;9.182;2023-07-28T12:14:40;99197.41;;;23.17;67.45
12594;BME280;6362;50.208;9.182;2023-07-28T12:17:16;99196.09;;;23.23;67.44
12594;BME280;6362;50.208;9.182;2023-07-28T12:20:04;99208.53;;;23.09;67.32
12594;BME280;6362;50.208;9.182;2023-07-28T12:22:37;99200.16;;;23.15;66.43
12594;BME280;6362;50.208;9.182;2023-07-28T12:25:04;99212.06;;;22.97;66.21
12594;BME280;6362;50.208;9.182;2023-07-28T12:27:30;99216.84;;;23.05;66.38
12594;BME280;6362;50.208;9.182;2023-07-28T12:29:55;99209.50;;;23.08;67.34
12594;BME280;6362;50.208;9.182;2023-07-28T12:32:21;99212.16;;;22.96;68.07
12594;BME280;6362;50.208;9.182;2023-07-28T12:34:48;99203.91;;;23.00;67.70
12594;BME280;6362;50.208;9.182;2023-07-28T12:37:14;99205.47;;;23.03;67.96
12594;BME280;6362;50.208;9.182;2023-07-28T12:39:39;99210.78;;;23.03;68.12
12594;BME280;6362;50.208;9.182;2023-07-28T12:42:08;99207.91;;;23.06;68.08
12594;BME280;6362;50.208;9.182;2023-07-28T12:44:35;99209.72;;;23.05;68.85
12594;BME280;6362;50.208;9.182;2023-07-28T12:47:00;99211.28;;;23.21;68.29
12594;BME280;6362;50.208;9.182;2023-07-28T12:49:26;99205.63;;;23.25;68.20
12594;BME280;6362;50.208;9.182;2023-07-28T12:52:00;99205.66;;;23.62;67.18
12594;BME280;6362;50.208;9.182;2023-07-28T12:54:26;99212.47;;;24.25;64.43
12594;BME280;6362;50.208;9.182;2023-07-28T12:56:54;99218.31;;;24.30;62.83
12594;BME280;6362;50.208;9.182;2023-07-28T12:59:19;99226.69;;;24.13;64.11
12594;BME280;6362;50.208;9.182;2023-07-28T13:01:45;99212.00;;;23.96;65.01
12594;BME280;6362;50.208;9.182;2023-07-28T13:04:11;99218.47;;;24.05;63.64
12594;BME280;6362;50.208;9.182;2023-07-28T13:06:36;99218.41;;;23.93;63.90
12594;BME280;6362;50.208;9.182;2023-07-28T13:09:02;99226.59;;;23.66;64.08
12594;BME280;6362;50.208;9.182;2023-07-28T13:11:29;99228.63;;;23.50;65.21
12594;BME280;6362;50.208;9.182;2023-07-28T13:13:55;99232.50;;;23.21;66.85
12594;BME280;6362;50.208;9.182;2023-07-28T13:16:20;99228.59;;;23.01;68.17
12594;BME280;6362;50.208;9.182;2023-07-28T13:18:46;99237.44;;;22.88;68.90
12594;BME280;6362;50.208;9.182;2023-07-28T13:21:12;99243.41;;;22.65;70.46